• Join FlightAware (Why Join?)
  • Login
  • US Flag 
10:56AM EDT


 

Airport Tracker/Info


-or-


 

Live Flight TrackerFlight Track Log ✈ N516QS ✈ 19-Apr-2013 ✈ KTEB - EGWU / NHT

Flight Track Log - Related Links

Times and Time Zones

All times are in EDT time to prevent confusion due to time zone crossing. See the N516QS flight status page for this flight to view local times or setup timezone preferences in your user account.

Time Position Orientation Groundspeed Altitude Reporting Facility
EDT Latitude Longitude Course Direction KTS MPH feet Rate Location/Type
09:26PM 40.8333 -74.1000 255° West 174 200 1,500  Level New York TRACON
09:28PM 40.8167 -74.1833 255° West 208 239 3,500 2,280 Climbing New York TRACON
09:29PM 40.8667 -74.2667 308° West 261 300 6,300 1,740 Climbing New York TRACON
09:30PM 40.9333 -74.3000 339° North 314 361 7,000 360 Climbing New York TRACON
09:31PM 41.0167 -74.2333 31° Northeast 348 400 7,100 840 Climbing New York TRACON
09:32PM 41.1000 -74.1833 24° Northeast 349 402 8,700 1,860 Climbing New York TRACON
09:33PM 41.1667 -74.0833 48° Northeast 365 420 10,900 1,140 Climbing New York TRACON
09:34PM 41.2000 -73.9333 74° East 407 468 11,000 240 Climbing New York TRACON
09:35PM 41.2333 -73.8000 72° East 409 471 11,400 1,020 Climbing New York TRACON
09:37PM 41.2969 -73.5203 73° East 428 493 14,100 1,680 Climbing Boston Center
09:38PM 41.3272 -73.3853 73° East 420 483 16,500 2,160 Climbing Boston Center
09:39PM 41.3683 -73.2144 72° East 427 491 18,500 2,160 Climbing Boston Center
09:40PM 41.4192 -73.0547 67° East 444 511 20,900 2,460 Climbing Boston Center
09:41PM 41.4867 -72.9000 60° Northeast 458 527 23,500 2,400 Climbing Boston Center
09:42PM 41.5475 -72.7425 63° Northeast 472 543 25,800 1,980 Climbing Boston Center
09:43PM 41.6125 -72.5761 62° Northeast 485 558 27,500 1,740 Climbing Boston Center
09:44PM 41.6794 -72.4011 63° Northeast 497 572 29,300 1,680 Climbing Boston Center
09:45PM 41.7500 -72.2231 62° Northeast 518 596 30,900 1,680 Climbing Boston Center
09:46PM 41.8081 -72.0836 61° Northeast 524 603 32,700 2,040 Climbing Boston Center
09:47PM 41.8947 -71.8822 60° Northeast 524 603 35,100 2,040 Climbing Boston Center
09:48PM 41.9897 -71.7278 50° Northeast 524 603 36,900 1,620 Climbing Boston Center
09:49PM 42.0825 -71.5731 51° Northeast 530 610 38,400 1,320 Climbing Boston Center
09:50PM 42.1811 -71.4203 49° Northeast 530 610 39,600 1,020 Climbing Boston Center
09:51PM 42.2653 -71.2842 50° Northeast 530 610 40,500 660 Climbing Boston Center
09:52PM 42.3594 -71.1253 51° Northeast 535 616 41,000 240 Climbing Boston Center
09:53PM 42.4575 -70.9628 51° Northeast 542 624 41,000  Level Boston Center
09:54PM 42.5611 -70.7769 53° Northeast 553 636 41,000  Level Boston Center
09:55PM 42.6528 -70.6306 50° Northeast 553 636 41,000  Level Boston Center
09:56PM 42.7558 -70.4436 53° Northeast 558 642 41,000  Level Boston Center
09:57PM 42.8531 -70.2819 51° Northeast 558 642 41,000  Level Boston Center
09:58PM 42.9417 -70.1314 51° Northeast 553 636 41,000  Level Boston Center
09:59PM 43.0364 -69.9658 52° Northeast 553 636 41,000  Level Boston Center
10:00PM 43.1283 -69.8000 53° Northeast 546 628 41,000  Level Boston Center
10:01PM 43.2244 -69.6306 52° Northeast 551 634 41,000  Level Boston Center
10:02PM 43.3203 -69.4606 52° Northeast 551 634 41,000  Level Boston Center
10:03PM 43.4117 -69.2931 53° Northeast 551 634 41,000  Level Boston Center
10:04PM 43.5092 -69.1275 51° Northeast 546 628 41,000  Level Boston Center
10:05PM 43.6019 -68.9561 53° Northeast 551 634 41,000  Level Boston Center
10:06PM 43.6969 -68.7897 52° Northeast 551 634 41,000 840 Level Boston Center
10:07PM 43.7872 -68.6233 53° Northeast 545 627 42,700 1,080 Climbing Boston Center
10:08PM 43.8856 -68.4442 53° Northeast 540 621 43,200 480 Climbing Boston Center
10:09PM 43.9756 -68.2794 53° Northeast 535 616 43,700 420 Climbing Boston Center
10:10PM 44.0653 -68.1142 53° Northeast 535 616 44,100 360 Climbing Boston Center
10:11PM 44.1528 -67.9514 53° Northeast 535 616 44,500 300 Climbing Boston Center
10:12PM 44.2400 -67.7853 54° Northeast 535 616 44,700 180 Climbing Boston Center
10:13PM 44.3289 -67.6156 54° Northeast 535 616 44,900 120 Climbing Boston Center
10:14PM 44.4156 -67.4486 54° Northeast 535 616 45,000  Climbing Boston Center
10:15PM 44.5081 -67.2747 53° Northeast 540 621 45,000  Level Boston Center
10:16PM 44.5983 -67.1033 53° Northeast 545 627 45,000  Level Boston Center
10:18PM 44.7622 -66.7808 54° Northeast  Level FlightAware Approximate
10:23PM 45.2333 -65.8333 55° Northeast 540 621 45,000  Level Gander Center
10:24PM 45.3167 -65.6500 57° Northeast 540 621 45,000  Level Gander Center
10:25PM 45.3372 -65.6306 54° Northeast  Level FlightAware Approximate
10:25PM 45.4333 -65.4000 56° Northeast 540 621 45,000  Level Moncton Center
10:26PM 45.4184 -65.4644 55° Northeast  Level FlightAware Approximate
10:26PM 45.5167 -65.2333 54° Northeast 540 621 45,000  Level Moncton Center
10:27PM 45.4993 -65.2978 55° Northeast  Level FlightAware Approximate
10:28PM 45.5800 -65.1306 55° Northeast  Level FlightAware Approximate
10:28PM 45.6667 -64.9500 53° Northeast 540 621 45,000  Level Gander Center
10:29PM 45.7333 -64.7667 62° Northeast 540 621 45,000  Level Gander Center
10:30PM 45.8333 -64.6167 46° Northeast 540 621 45,000  Level Gander Center
10:31PM 45.9167 -64.4167 59° Northeast 540 621 45,000  Level Gander Center
10:32PM 45.9667 -64.3000 58° Northeast 550 633 45,000  Level Gander Center
10:32PM 46.0000 -64.2333 54° Northeast 540 621 45,000  Level Gander Center
10:33PM 46.1000 -64.0500 52° Northeast 550 633 45,000  Level Gander Center
10:34PM 46.1833 -63.8833 54° Northeast 550 633 45,000  Level Gander Center
10:35PM 46.2667 -63.7000 57° Northeast 550 633 45,000  Level Gander Center
10:36PM 46.3333 -63.5000 64° Northeast 540 621 45,000  Level Gander Center
10:37PM 46.4333 -63.3167 52° Northeast 550 633 45,000  Level Gander Center
10:37PM 46.4667 -63.2333 60° Northeast 550 633 45,000  Level Moncton Center
10:38PM 46.5500 -63.0667 54° Northeast 540 621 45,000  Level Moncton Center
10:39PM 46.6333 -62.8667 59° Northeast 540 621 45,000  Level Moncton Center
10:40PM 46.7167 -62.6833 56° Northeast 540 621 45,000  Level Moncton Center
10:41PM 46.8000 -62.4833 59° Northeast 540 621 45,000  Level Moncton Center
10:42PM 46.8833 -62.3167 54° Northeast 540 621 45,000  Level Moncton Center
10:43PM 46.9500 -62.1333 62° Northeast 540 621 45,000  Level Moncton Center
10:44PM 47.0333 -61.9333 59° Northeast 540 621 45,000  Level Moncton Center
10:45PM 47.1167 -61.7667 54° Northeast 540 621 45,000  Level Moncton Center
10:46PM 47.1667 -61.6500 58° Northeast 540 621 45,000  Level Gander Center
10:46PM 47.2000 -61.5667 59° Northeast 540 621 45,000  Level Moncton Center
10:47PM 47.2833 -61.3833 56° Northeast 540 621 45,000  Level Moncton Center
10:48PM 47.3500 -61.1833 64° Northeast 540 621 45,000  Level Moncton Center
10:49PM 47.4333 -61.0000 56° Northeast 540 621 45,000  Level Moncton Center
10:50PM 47.5333 -60.8000 53° Northeast 540 621 45,000  Level Moncton Center
10:51PM 47.6000 -60.6167 62° Northeast 540 621 45,000  Level Moncton Center
10:52PM 47.6833 -60.4167 58° Northeast 540 621 45,000  Level Moncton Center
10:53PM 47.7500 -60.2333 62° Northeast 540 621 45,000  Level Moncton Center
10:54PM 47.8333 -60.0333 58° Northeast 540 621 45,000  Level Moncton Center
10:55PM 47.9167 -59.8500 56° Northeast 550 633 45,000  Level Moncton Center
10:56PM 47.9833 -59.6500 63° Northeast 550 633 45,000  Level Moncton Center
10:57PM 48.0833 -59.4333 55° Northeast 550 633 45,000  Level Moncton Center
10:58PM 48.1167 -59.3333 63° Northeast 540 621 45,000  Level Gander Center
10:58PM 48.1333 -59.2500 73° East 540 621 45,000  Level Moncton Center
10:59PM 48.2333 -59.0667 51° Northeast 540 621 45,000  Level Moncton Center
11:00PM 48.3000 -58.8500 65° Northeast 540 621 45,000  Level Moncton Center
11:01PM 48.3833 -58.6500 58° Northeast 540 621 45,000  Level Moncton Center
11:02PM 48.4167 -58.5667 59° Northeast 550 633 45,000  Level Gander Center
11:03PM 48.5000 -58.3500 60° Northeast 550 633 45,000  Level Gander Center
11:03PM 48.5333 -58.2833 53° Northeast 550 633 45,000  Level Moncton Center
11:04PM 48.6000 -58.0667 65° Northeast 550 633 45,000  Level Moncton Center
11:05PM 48.6333 -57.9500 67° East 550 633 45,000  Level Gander Center
11:05PM 48.6667 -57.8833 53° Northeast 550 633 45,000  Level Moncton Center
11:06PM 48.7167 -57.7667 57° Northeast 540 621 45,000  Level Gander Center
11:07PM 48.7667 -57.5500 71° East 540 621 45,000  Level Gander Center
11:07PM 48.8000 -57.4500 63° Northeast 540 621 45,000  Level Moncton Center
11:08PM 48.8500 -57.3500 53° Northeast 540 621 45,000  Level Gander Center
11:09PM 48.9000 -57.1333 71° East 540 621 45,000  Level Gander Center
11:10PM 48.9833 -56.9333 58° Northeast 550 633 45,000  Level Gander Center
11:11PM 49.0500 -56.7333 63° Northeast 550 633 45,000  Level Gander Center
11:12PM 49.1167 -56.5000 66° East 550 633 45,000  Level Gander Center
11:13PM 49.1833 -56.3167 61° Northeast 540 621 45,000  Level Gander Center
11:14PM 49.2500 -56.1000 65° Northeast 550 633 45,000  Level Gander Center
11:15PM 49.3167 -55.9000 63° Northeast 540 621 45,000  Level Gander Center
11:16PM 49.3500 -55.7667 69° East 540 621 45,000  Level Gander Center
11:16PM 49.3833 -55.6833 58° Northeast 540 621 45,000  Level Gander Center
11:17PM 49.4167 -55.5500 69° East 550 633 45,000  Level Gander Center
11:18PM 49.5000 -55.3333 59° Northeast 540 621 45,000  Level Gander Center
11:18PM 49.5167 -55.2833 63° Northeast 540 621 45,000  Level Gander Center
11:19PM 49.5833 -55.0333 68° East 550 633 45,000  Level Gander Center
11:20PM 49.6333 -54.8500 67° East 550 633 45,000  Level Gander Center
11:21PM 49.7167 -54.6333 59° Northeast 550 633 45,000  Level Gander Center
11:22PM 49.7667 -54.4167 70° East 540 621 45,000  Level Gander Center
11:22PM 49.8000 -54.3167 63° Northeast 540 621 45,000  Level Moncton Center
11:23PM 49.8667 -54.1167 63° Northeast 540 621 45,000  Level Moncton Center
11:24PM 49.8833 -54.0167 75° East 540 621 45,000  Level Gander Center
11:24PM 49.9167 -53.9000 66° East 540 621 45,000  Level Moncton Center
11:25PM 49.9833 -53.6667 66° East 540 621 45,000  Level Moncton Center
11:26PM 50.0333 -53.4833 67° East 540 621 45,000  Level Moncton Center
11:27PM 50.1000 -53.2500 66° East 540 621 45,000  Level Moncton Center
11:28PM 50.1667 -53.0500 62° Northeast 540 621 45,000  Level Moncton Center
11:29PM 50.2000 -52.9167 69° East 540 621 45,000  Level Gander Center
11:29PM 50.2333 -52.8333 58° Northeast 540 621 45,000  Level Moncton Center
11:30PM 50.3000 -52.6333 62° Northeast 540 621 45,000  Level Moncton Center
11:31PM 50.3333 -52.4000 77° East 530 610 45,000  Level Moncton Center
11:32PM 50.4000 -52.2000 62° Northeast 530 610 45,000  Level Moncton Center
11:33PM 50.4667 -51.9833 64° Northeast 530 610 45,000  Level Moncton Center
11:34PM 50.5167 -51.7500 71° East 530 610 45,000  Level Moncton Center
11:35PM 50.5667 -51.5500 68° East 540 621 45,000  Level Moncton Center
11:36PM 50.6333 -51.3167 66° East 530 610 45,000  Level Moncton Center
11:37PM 50.6667 -51.2167 62° Northeast 530 610 45,000  Level Gander Center
11:37PM 50.6833 -51.1167 75° East 540 621 45,000  Level Moncton Center
11:38PM 50.7333 -50.9167 68° East 540 621 45,000  Level Moncton Center
11:39PM 50.7833 -50.6833 71° East 540 621 45,000  Level Moncton Center
11:40PM 50.8500 -50.4500 66° East 540 621 45,000  Level Moncton Center
11:41PM 50.9000 -50.3333 56° Northeast 540 621 45,000  Level Gander Center
11:42PM 50.9333 -50.1333 75° East 540 621 45,000  Level Gander Center
11:43PM 51.0000 -49.9000 66° East 540 621 45,000  Level Gander Center
11:43PM 51.0000 -49.7833 90° East 550 633 45,000  Level Moncton Center
11:44PM 51.0500 -49.5667 70° East 560 644 45,000  Level Moncton Center
11:45PM 51.0000 -50.0000 77° East 539 620 45,000  Level ETMS Enhanced Traffic Management System
11:45PM 51.0500 -49.4333 77° East 550 633 45,000  Level Gander Center
11:46PM 51.1000 -49.2833 62° Northeast 550 633 45,000  Level Gander Center
11:48PM 51.1584 -48.8499 78° East  Level FlightAware Approximate
11:55PM 51.3562 -47.2719 78° East  Level FlightAware Approximate
11:56PM 51.3827 -47.0454 79° East  Level FlightAware Approximate
11:57PM 51.4088 -46.8186 79° East  Level FlightAware Approximate
11:58PM 51.4344 -46.5915 80° East  Level FlightAware Approximate
11:59PM 51.4596 -46.3643 80° East  Level FlightAware Approximate
12:00AM 51.4846 -46.1368 80° East  Level FlightAware Approximate
12:01AM 51.5092 -45.9091 80° East  Level FlightAware Approximate
12:02AM 51.5334 -45.6811 80° East  Level FlightAware Approximate
12:03AM 51.5571 -45.4529 80° East  Level FlightAware Approximate
12:04AM 51.5804 -45.2245 81° East  Level FlightAware Approximate
12:05AM 51.6033 -44.9958 81° East  Level FlightAware Approximate
12:06AM 51.6257 -44.7669 81° East  Level FlightAware Approximate
12:07AM 51.6476 -44.5378 81° East  Level FlightAware Approximate
12:08AM 51.6692 -44.3085 81° East  Level FlightAware Approximate
12:09AM 51.6902 -44.0789 81° East  Level FlightAware Approximate
12:10AM 51.7108 -43.8492 82° East  Level FlightAware Approximate
12:11AM 51.7319 -43.6194 81° East  Level FlightAware Approximate
12:12AM 51.7528 -43.3895 82° East  Level FlightAware Approximate
12:13AM 51.7732 -43.1594 82° East  Level FlightAware Approximate
12:14AM 51.7932 -42.9291 82° East  Level FlightAware Approximate
12:15AM 51.8112 -42.6982 83° East  Level FlightAware Approximate
12:16AM 51.8278 -42.4670 83° East  Level FlightAware Approximate
12:17AM 51.8440 -42.2357 83° East  Level FlightAware Approximate
12:18AM 51.8597 -42.0041 84° East  Level FlightAware Approximate
12:19AM 51.8766 -41.7727 83° East  Level FlightAware Approximate
12:20AM 51.8942 -41.5414 83° East  Level FlightAware Approximate
12:21AM 51.9114 -41.3098 83° East  Level FlightAware Approximate
12:22AM 51.9282 -41.0782 83° East  Level FlightAware Approximate
12:23AM 51.9445 -40.8463 83° East  Level FlightAware Approximate
12:24AM 51.9603 -40.6142 84° East  Level FlightAware Approximate
12:25AM 51.9757 -40.3820 84° East  Level FlightAware Approximate
12:25AM 52.0000 -40.0000 77° East 541 623 45,000  Level ETMS Enhanced Traffic Management System
12:26AM 51.9906 -40.1497 84° East  Level FlightAware Approximate
12:27AM 52.0116 -39.9189 77° East  Level FlightAware Approximate
12:28AM 52.0438 -39.6910 77° East  Level FlightAware Approximate
12:29AM 52.0756 -39.4628 77° East  Level FlightAware Approximate
12:30AM 52.1069 -39.2342 77° East  Level FlightAware Approximate
12:31AM 52.2608 -38.0873 78° East 541 623 45,000  Level FlightAware Transoceanic
12:32AM 52.2912 -37.8467 78° East 541 623 45,000  Level FlightAware Transoceanic
12:33AM 52.3211 -37.6057 79° East 541 623 45,000  Level FlightAware Transoceanic
12:34AM 52.3505 -37.3644 79° East 541 623 45,000  Level FlightAware Transoceanic
12:35AM 52.3795 -37.1228 79° East 541 623 45,000  Level FlightAware Transoceanic
12:36AM 52.4079 -36.8809 79° East 541 623 45,000  Level FlightAware Transoceanic
12:37AM 52.4359 -36.6387 79° East 541 623 45,000  Level FlightAware Transoceanic
12:38AM 52.4633 -36.3961 80° East 541 623 45,000  Level FlightAware Transoceanic
12:39AM 52.4903 -36.1533 80° East 541 623 45,000  Level FlightAware Transoceanic
12:40AM 52.5168 -35.9102 80° East 541 623 45,000  Level FlightAware Transoceanic
12:41AM 52.5427 -35.6668 80° East 541 623 45,000  Level FlightAware Transoceanic
12:42AM 52.5682 -35.4231 80° East 541 623 45,000  Level FlightAware Transoceanic
12:43AM 52.5931 -35.1791 81° East 541 623 45,000  Level FlightAware Transoceanic
12:44AM 52.6176 -34.9348 81° East 541 623 45,000  Level FlightAware Transoceanic
12:45AM 52.6416 -34.6903 81° East 541 623 45,000  Level FlightAware Transoceanic
12:46AM 52.6650 -34.4455 81° East 541 623 45,000  Level FlightAware Transoceanic
12:47AM 52.6880 -34.2005 81° East 541 623 45,000  Level FlightAware Transoceanic
12:48AM 52.7104 -33.9552 82° East 541 623 45,000  Level FlightAware Transoceanic
12:49AM 52.7323 -33.7096 82° East 541 623 45,000  Level FlightAware Transoceanic
12:50AM 52.7538 -33.4638 82° East 541 623 45,000  Level FlightAware Transoceanic
12:51AM 52.7747 -33.2178 82° East 541 623 45,000  Level FlightAware Transoceanic
12:52AM 52.7951 -32.9715 82° East 541 623 45,000  Level FlightAware Transoceanic
12:53AM 52.8150 -32.7250 82° East 541 623 45,000  Level FlightAware Transoceanic
12:54AM 52.8344 -32.4783 83° East 541 623 45,000  Level FlightAware Transoceanic
12:55AM 52.8533 -32.2313 83° East 541 623 45,000  Level FlightAware Transoceanic
12:56AM 52.8716 -31.9842 83° East 541 623 45,000  Level FlightAware Transoceanic
12:57AM 52.8895 -31.7368 83° East 541 623 45,000  Level FlightAware Transoceanic
12:58AM 52.9068 -31.4893 83° East 541 623 45,000  Level FlightAware Transoceanic
12:59AM 52.9236 -31.2415 84° East 541 623 45,000  Level FlightAware Transoceanic
01:00AM 52.9399 -30.9936 84° East 541 623 45,000  Level FlightAware Transoceanic
01:01AM 52.9557 -30.7454 84° East 541 623 45,000  Level FlightAware Transoceanic
01:02AM 52.9710 -30.4971 84° East 541 623 45,000  Level FlightAware Transoceanic
01:03AM 52.9858 -30.2486 84° East 541 623 45,000  Level FlightAware Transoceanic
01:04AM 52.9994 -30.0107 84° East  Level FlightAware Approximate
01:05AM 53.0125 -29.7726 85° East  Level FlightAware Approximate
01:06AM 53.0084 -29.7828 86° East  Level FlightAware Approximate
01:07AM 53.0172 -29.5441 86° East  Level FlightAware Approximate
01:07AM 53.0000 -30.0000 86° East 555 639 45,000  Level ETMS Enhanced Traffic Management System
01:08AM 53.0255 -29.3053 87° East  Level FlightAware Approximate
01:09AM 53.0333 -29.0664 87° East  Level FlightAware Approximate
01:10AM 53.0407 -28.8274 87° East  Level FlightAware Approximate
01:11AM 53.0476 -28.5884 87° East  Level FlightAware Approximate
01:12AM 53.0540 -28.3493 87° East  Level FlightAware Approximate
01:13AM 53.0745 -27.6954 88° East 555 639 45,000  Level FlightAware Transoceanic
01:14AM 53.0800 -27.4389 88° East 555 639 45,000  Level FlightAware Transoceanic
01:15AM 53.0850 -27.1824 88° East 555 639 45,000  Level FlightAware Transoceanic
01:16AM 53.0894 -26.9257 88° East 555 639 45,000  Level FlightAware Transoceanic
01:17AM 53.0933 -26.6691 89° East 555 639 45,000  Level FlightAware Transoceanic
01:18AM 53.0966 -26.4124 89° East 555 639 45,000  Level FlightAware Transoceanic
01:19AM 53.0993 -26.1556 89° East 555 639 45,000  Level FlightAware Transoceanic
01:20AM 53.1016 -25.8988 89° East 555 639 45,000  Level FlightAware Transoceanic
01:21AM 53.1032 -25.6420 89° East 555 639 45,000  Level FlightAware Transoceanic
01:22AM 53.1043 -25.3852 90° East 555 639 45,000  Level FlightAware Transoceanic
01:23AM 53.1049 -25.1284 90° East 555 639 45,000  Level FlightAware Transoceanic
01:24AM 53.1049 -24.8716 90° East 555 639 45,000  Level FlightAware Transoceanic
01:25AM 53.1043 -24.6148 90° East 555 639 45,000  Level FlightAware Transoceanic
01:26AM 53.1032 -24.3580 91° East 555 639 45,000  Level FlightAware Transoceanic
01:27AM 53.1016 -24.1012 91° East 555 639 45,000  Level FlightAware Transoceanic
01:28AM 53.0993 -23.8444 91° East 555 639 45,000  Level FlightAware Transoceanic
01:29AM 53.0966 -23.5876 91° East 555 639 45,000  Level FlightAware Transoceanic
01:30AM 53.0933 -23.3309 91° East 555 639 45,000  Level FlightAware Transoceanic
01:31AM 53.0894 -23.0743 92° East 555 639 45,000  Level FlightAware Transoceanic
01:32AM 53.0850 -22.8176 92° East 555 639 45,000  Level FlightAware Transoceanic
01:33AM 53.0800 -22.5611 92° East 555 639 45,000  Level FlightAware Transoceanic
01:34AM 53.0745 -22.3046 92° East 555 639 45,000  Level FlightAware Transoceanic
01:35AM 53.0684 -22.0482 92° East 555 639 45,000  Level FlightAware Transoceanic
01:36AM 53.0618 -21.7918 93° East 555 639 45,000  Level FlightAware Transoceanic
01:37AM 53.0546 -21.5355 93° East 555 639 45,000  Level FlightAware Transoceanic
01:38AM 53.0469 -21.2794 93° East 555 639 45,000  Level FlightAware Transoceanic
01:39AM 53.0386 -21.0233 93° East 555 639 45,000  Level FlightAware Transoceanic
01:40AM 53.0298 -20.7673 93° East 555 639 45,000  Level FlightAware Transoceanic
01:41AM 53.0204 -20.5114 94° East 555 639 45,000  Level FlightAware Transoceanic
01:42AM 53.0105 -20.2556 94° East 555 639 45,000 -60 Level FlightAware Transoceanic
01:43AM 53.0007 -20.0171 94° East  Level FlightAware Approximate
01:44AM 52.9904 -19.7786 94° East  Level FlightAware Approximate
01:45AM 52.9994 -19.7952 90° East  Level FlightAware Approximate
01:46AM 52.9981 -19.5561 90° East  Level FlightAware Approximate
01:47AM 52.9965 -19.3170 91° East  Level FlightAware Approximate
01:48AM 52.9943 -19.0780 91° East  Level FlightAware Approximate
01:49AM 52.9917 -18.8390 91° East  Level FlightAware Approximate
01:50AM 52.9885 -18.6000 91° East  Level FlightAware Approximate
01:51AM 52.9850 -18.3611 91° East  Level FlightAware Approximate
01:52AM 52.9809 -18.1222 92° East  Level FlightAware Approximate
01:53AM 52.9763 -17.8834 92° East  Level FlightAware Approximate
01:54AM 52.9713 -17.6446 92° East  Level FlightAware Approximate
01:55AM 52.9658 -17.4058 92° East  Level FlightAware Approximate
01:56AM 52.9598 -17.1672 92° East  Level FlightAware Approximate
01:57AM 52.9533 -16.9286 92° East  Level FlightAware Approximate
01:58AM 52.9463 -16.6901 93° East  Level FlightAware Approximate
01:59AM 52.9389 -16.4516 93° East  Level FlightAware Approximate
02:00AM 52.9310 -16.2132 93° East  Level FlightAware Approximate
02:01AM 52.9226 -15.9750 93° East  Level FlightAware Approximate
02:02AM 52.9138 -15.7368 93° East  Level FlightAware Approximate
02:03AM 52.9044 -15.4987 94° East  Level FlightAware Approximate
02:04AM 52.8946 -15.2607 94° East  Level FlightAware Approximate
02:05AM 52.8843 -15.0229 94° East  Level FlightAware Approximate
02:06AM 52.8744 -14.7851 94° East  Level FlightAware Approximate
02:07AM 52.8641 -14.5473 94° East  Level FlightAware Approximate
02:08AM 52.8532 -14.3097 94° East  Level FlightAware Approximate
02:09AM 52.8420 -14.0722 94° East  Level FlightAware Approximate
02:10AM 52.8302 -13.8348 95° East  Level FlightAware Approximate
02:11AM 52.8180 -13.5975 95° East  Level FlightAware Approximate
02:12AM 52.8053 -13.3604 95° East  Level FlightAware Approximate
02:13AM 52.7921 -13.1235 95° East  Level FlightAware Approximate
02:14AM 52.7784 -12.8866 95° East  Level FlightAware Approximate
02:15AM 52.7643 -12.6500 96° East  Level FlightAware Approximate
02:16AM 52.7497 -12.4134 96° East  Level FlightAware Approximate
02:17AM 52.7347 -12.1771 96° East  Level FlightAware Approximate
02:18AM 52.7191 -11.9409 96° East  Level FlightAware Approximate
02:19AM 52.7031 -11.7049 96° East  Level FlightAware Approximate
02:20AM 52.6867 -11.4690 96° East  Level FlightAware Approximate
02:21AM 52.6697 -11.2333 97° East  Level FlightAware Approximate
02:22AM 52.6523 -10.9979 97° East  Level FlightAware Approximate
02:23AM 52.6344 -10.7626 97° East  Level FlightAware Approximate
02:24AM 52.6161 -10.5275 97° East  Level FlightAware Approximate
02:25AM 52.5973 -10.2926 97° East  Level FlightAware Approximate
02:26AM 52.5781 -10.0579 98° East  Level FlightAware Approximate
02:27AM 52.5583 -9.8234 98° East  Level FlightAware Approximate
02:28AM 52.5381 -9.5891 98° East  Level FlightAware Approximate
02:29AM 52.5175 -9.3551 98° East  Level FlightAware Approximate
02:29AM 52.4991 -8.9884 98° East 484 557 43,500  Level FlightAware UK
02:30AM 52.4892 -8.8958 100° East 486 559 43,500  Level FlightAware UK
02:30AM 52.4816 -8.8268 100° East 486 559 43,500  Level FlightAware UK
02:30AM 52.4737 -8.7572 101° East 488 562 43,500  Level FlightAware UK
02:31AM 52.4659 -8.6877 100° East 486 559 43,500  Level FlightAware UK
02:31AM 52.4582 -8.6187 100° East 484 557 43,500  Level FlightAware UK
02:31AM 52.4504 -8.5493 100° East 484 557 43,500  Level FlightAware UK
02:32AM 52.4398 -8.4569 101° East 486 559 43,500  Level FlightAware UK
02:32AM 52.4317 -8.3875 101° East 484 557 43,500  Level FlightAware UK
02:32AM 52.4236 -8.3172 101° East 488 562 43,500  Level FlightAware UK
02:32AM 52.4154 -8.2476 101° East 488 562 43,500  Level FlightAware UK
02:33AM 52.4045 -8.1546 101° East 488 562 43,500  Level FlightAware UK
02:33AM 52.3964 -8.0848 101° East 488 562 43,500  Level FlightAware UK
02:33AM 52.3883 -8.0150 101° East 488 562 43,500  Level FlightAware UK
02:34AM 52.3800 -7.9453 101° East 486 559 43,500  Level FlightAware UK
02:34AM 52.3717 -7.8757 101° East 484 557 43,500  Level FlightAware UK
02:34AM 52.3633 -7.8065 101° East 484 557 43,500  Level FlightAware UK
02:35AM 52.3548 -7.7373 101° East 484 557 43,500  Level FlightAware UK
02:35AM 52.3464 -7.6683 101° East 488 562 43,500  Level FlightAware UK
02:35AM 52.3379 -7.5990 101° East 490 564 43,500  Level FlightAware UK
02:36AM 52.3295 -7.5298 101° East 486 559 43,500  Level FlightAware UK
02:36AM 52.3211 -7.4606 101° East 484 557 43,500 -840 Level FlightAware UK
02:36AM 52.3125 -7.3913 101° East 490 564 43,000 -2,040 Descending FlightAware UK
02:37AM 52.3010 -7.2988 101° East 486 559 42,100 -2,040 Descending FlightAware UK
02:37AM 52.2923 -7.2299 102° East 482 555 41,600 -1,680 Descending FlightAware UK
02:37AM 52.2834 -7.1613 102° East 478 550 41,100 -1,860 Descending FlightAware UK
02:37AM 52.2747 -7.0923 102° East 482 555 40,500 -2,040 Descending FlightAware UK
02:38AM 52.2662 -7.0249 102° East 486 559 39,900 -2,220 Descending FlightAware UK
02:38AM 52.2578 -6.9584 102° East 488 562 39,200 -2,220 Descending FlightAware UK
02:38AM 52.2492 -6.8919 102° East 470 541 38,600 -2,040 Descending FlightAware UK
02:39AM 52.2408 -6.8257 102° East 464 534 38,000 -2,340 Descending FlightAware UK
02:39AM 52.2321 -6.7591 102° East 472 543 37,200 -2,520 Descending FlightAware UK
02:39AM 52.2233 -6.6920 102° East 478 550 36,500 -2,520 Descending FlightAware UK
02:40AM 52.2145 -6.6248 102° East 470 541 35,700 -2,520 Descending FlightAware UK
02:40AM 52.2057 -6.5574 102° East 474 545 35,000 -2,700 Descending FlightAware UK
02:40AM 52.1968 -6.4900 102° East 476 548 34,100 -2,880 Descending FlightAware UK
02:40AM 52.1880 -6.4223 102° East 480 552 33,300 -3,000 Descending FlightAware UK
02:41AM 52.1789 -6.3545 102° East 478 550 32,300 -2,280 Descending FlightAware UK
02:41AM 52.1633 -6.2399 102° East 484 557 31,500 -1,020 Descending FlightAware UK
02:42AM 52.1540 -6.1708 102° East 488 562 31,500  Level FlightAware UK
02:42AM 52.1445 -6.1016 103° East 490 564 31,500  Level FlightAware UK
02:42AM 52.1315 -6.0097 103° East 490 564 31,500  Level FlightAware UK
02:43AM 52.1203 -5.9407 105° East 490 564 31,500  Level FlightAware UK
02:43AM 52.1078 -5.8738 107° East 488 562 31,500  Level FlightAware UK
02:43AM 52.0914 -5.7844 107° East 486 559 31,500  Level FlightAware UK
02:44AM 52.0794 -5.7174 106° East 486 559 31,500  Level FlightAware UK
02:44AM 52.0633 -5.6283 106° East 488 562 31,500  Level FlightAware UK
02:44AM 52.0511 -5.5616 106° East 486 559 31,500  Level FlightAware UK
02:45AM 52.0388 -5.4948 107° East 486 559 31,500  Level FlightAware UK
02:45AM 52.0224 -5.4059 107° East 488 562 31,500  Level FlightAware UK
02:45AM 52.0063 -5.3170 106° East 488 562 31,500  Level FlightAware UK
02:46AM 51.9941 -5.2505 107° East 486 559 31,500  Level FlightAware UK
02:46AM 51.9817 -5.1840 107° East 488 562 31,500  Level FlightAware UK
02:46AM 51.9692 -5.1175 107° East 488 562 31,500  Level FlightAware UK
02:47AM 51.9567 -5.0511 107° East 486 559 31,500  Level FlightAware UK
02:47AM 51.9443 -4.9846 107° East 488 562 31,500  Level FlightAware UK
02:47AM 51.9316 -4.9176 107° East 488 562 31,500  Level FlightAware UK
02:47AM 51.9192 -4.8512 107° East 488 562 31,500  Level FlightAware UK
02:48AM 51.9065 -4.7848 107° East 488 562 31,500  Level FlightAware UK
02:48AM 51.8897 -4.6964 107° East 488 562 31,500  Level FlightAware UK
02:48AM 51.8769 -4.6302 107° East 490 564 31,500  Level FlightAware UK
02:49AM 51.8643 -4.5643 107° East 488 562 31,500  Level FlightAware UK
02:49AM 51.8517 -4.4985 107° East 486 559 31,500  Level FlightAware UK
02:49AM 51.8390 -4.4330 107° East 486 559 31,500  Level FlightAware UK
02:50AM 51.8264 -4.3678 107° East 486 559 31,500  Level FlightAware UK
02:50AM 51.8095 -4.2803 107° East 486 559 31,500  Level FlightAware UK
02:50AM 51.7969 -4.2159 108° East 486 559 31,500  Level FlightAware UK
02:51AM 51.7753 -4.1062 108° East 488 562 31,500  Level FlightAware UK
02:51AM 51.7580 -4.0187 108° East 488 562 31,500  Level FlightAware UK
02:52AM 51.7406 -3.9312 108° East 488 562 31,500  Level FlightAware UK
02:52AM 51.7233 -3.8438 108° East 488 562 31,500  Level FlightAware UK
02:52AM 51.7104 -3.7786 108° East 488 562 31,500 -540 Level FlightAware UK
02:53AM 51.6885 -3.6704 108° East 490 564 31,100 -1,560 Descending FlightAware UK
02:53AM 51.6709 -3.5836 108° East 490 564 30,100 -2,460 Descending FlightAware UK
02:54AM 51.6578 -3.5193 108° East 488 562 29,400 -2,280 Descending FlightAware UK
02:54AM 51.6362 -3.4124 108° East 490 564 28,300 -2,220 Descending FlightAware UK
02:55AM 51.6149 -3.3058 108° East 482 555 27,200 -2,280 Descending FlightAware UK
02:55AM 51.6048 -3.2436 105° East 474 545 26,500 -2,220 Descending FlightAware UK
02:55AM 51.5959 -3.1802 103° East 470 541 25,900 -2,220 Descending FlightAware UK
02:55AM 51.5879 -3.1180 102° East 468 539 25,200 -2,160 Descending FlightAware UK
02:56AM 51.5717 -2.9954 102° East 458 527 24,000 -2,040 Descending FlightAware UK
02:57AM 51.5581 -2.8941 102° East 454 522 23,000 -2,160 Descending FlightAware UK
02:57AM 51.5475 -2.8148 102° East 450 518 22,100 -2,160 Descending FlightAware UK
02:57AM 51.5397 -2.7560 102° East 436 502 21,500 -1,860 Descending FlightAware UK
02:58AM 51.5320 -2.6999 102° East 420 483 21,000 -1,860 Descending FlightAware UK
02:58AM 51.5222 -2.6287 102° East 402 463 20,200 -1,920 Descending FlightAware UK
02:58AM 51.5131 -2.5610 102° East 386 444 19,500 -1,680 Descending FlightAware UK
02:59AM 51.5040 -2.4956 102° East 366 421 18,900 -1,620 Descending FlightAware UK
02:59AM 51.4975 -2.4485 103° East 362 417 18,400 -1,680 Descending FlightAware UK
02:59AM 51.4911 -2.4019 102° East 356 410 17,900 -1,500 Descending FlightAware UK
03:00AM 51.4848 -2.3559 102° East 354 407 17,500 -1,140 Descending FlightAware UK
03:00AM 51.4782 -2.3088 103° East 358 412 17,200 -840 Descending FlightAware UK
03:00AM 51.4719 -2.2628 102° East 354 407 17,000 -840 Descending FlightAware UK
03:01AM 51.4653 -2.2160 103° East 350 403 16,700 -1,020 Descending FlightAware UK
03:01AM 51.4524 -2.1250 103° East 348 400 16,100 -1,020 Descending FlightAware UK
03:02AM 51.4438 -2.0648 103° East 348 400 15,700 -1,020 Descending FlightAware UK
03:02AM 51.4373 -2.0194 103° East 346 398 15,400 -1,020 Descending FlightAware UK
03:02AM 51.4310 -1.9749 103° East 344 396 15,100 -1,020 Descending FlightAware UK
03:02AM 51.4247 -1.9306 103° East 342 394 14,800 -840 Descending FlightAware UK
03:03AM 51.4183 -1.8865 103° East 342 394 14,600 -900 Descending FlightAware UK
03:03AM 51.4099 -1.8280 103° East 338 389 14,200 -1,020 Descending FlightAware UK
03:04AM 51.4014 -1.7693 103° East 338 389 13,800 -1,020 Descending FlightAware UK
03:04AM 51.3953 -1.7269 103° East 332 382 13,500 -900 Descending FlightAware UK
03:04AM 51.3874 -1.6727 103° East 310 357 13,200 -840 Descending FlightAware UK
03:05AM 51.3759 -1.5940 103° East 308 354 12,700 -900 Descending FlightAware UK
03:05AM 51.3701 -1.5548 103° East 306 352 12,400 -360 Descending FlightAware UK
03:05AM 51.3643 -1.5151 103° East 306 352 12,500 120 Climbing FlightAware UK
03:06AM 51.3585 -1.4759 103° East 306 352 12,500  Level FlightAware UK
03:06AM 51.3527 -1.4369 103° East 306 352 12,500  Level FlightAware UK
03:06AM 51.3470 -1.3984 103° East 306 352 12,500  Level FlightAware UK
03:07AM 51.3412 -1.3591 103° East 306 352 12,500  Level FlightAware UK
03:07AM 51.3354 -1.3202 103° East 306 352 12,500  Level FlightAware UK
03:07AM 51.3296 -1.2812 103° East 306 352 12,500  Level FlightAware UK
03:08AM 51.3237 -1.2423 104° East 306 352 12,500  Level FlightAware UK
03:08AM 51.3182 -1.2028 103° East 306 352 12,500  Level FlightAware UK
03:08AM 51.3168 -1.1637 93° East 306 352 12,500 -180 Level FlightAware UK
03:08AM 51.3163 -1.1248 91° East 306 352 12,400 -660 Descending FlightAware UK
03:09AM 51.3155 -1.0594 91° East 304 350 12,000 -900 Descending FlightAware UK
03:09AM 51.3150 -1.0206 91° East 302 348 11,700 -1,020 Descending FlightAware UK
03:10AM 51.3144 -0.9818 91° East 302 348 11,400 -300 Descending FlightAware UK
03:10AM 51.3136 -0.9300 91° East 302 348 11,500 120 Climbing FlightAware UK
03:10AM 51.3128 -0.8784 91° East 302 348 11,500  Level FlightAware UK
03:11AM 51.3122 -0.8391 92° East 302 348 11,500  Level FlightAware UK
03:11AM 51.3115 -0.8008 92° East 302 348 11,500  Level FlightAware UK
03:11AM 51.3108 -0.7617 92° East 302 348 11,500  Level FlightAware UK
03:12AM 51.3099 -0.7100 92° East 302 348 11,500 -300 Level FlightAware UK
03:12AM 51.3090 -0.6585 92° East 300 345 11,300 -840 Descending FlightAware UK
03:12AM 51.3083 -0.6196 92° East 300 345 10,900 -1,320 Descending FlightAware UK
03:13AM 51.3075 -0.5814 92° East 296 341 10,500 -1,020 Descending FlightAware UK
03:13AM 51.3097 -0.5317 86° East 294 338 10,200 -1,320 Descending FlightAware UK
03:13AM 51.3157 -0.4959 75° East 294 338 9,600 -2,040 Descending FlightAware UK
03:14AM 51.3254 -0.4625 65° Northeast 290 334 9,000 -1,860 Descending FlightAware UK
03:14AM 51.3476 -0.4322 40° Northeast 284 327 8,300 -2,040 Descending FlightAware UK
03:14AM 51.3700 -0.4263 North 282 325 7,600 -1,680 Descending FlightAware UK
03:15AM 51.3922 -0.4237 North 270 311 7,300 -720 Descending FlightAware UK
03:15AM 51.4129 -0.4209 North 254 292 7,200 -600 Descending FlightAware UK
03:15AM 51.4380 -0.4111 14° North 238 274 6,900 -900 Descending FlightAware UK
03:16AM 51.4559 -0.4014 19° North 234 269 6,600 -1,380 Descending FlightAware UK
03:16AM 51.4731 -0.3908 21° North 232 267 6,100 -1,680 Descending FlightAware UK
03:16AM 51.5010 -0.3722 23° Northeast 228 262 5,300 -1,680 Descending FlightAware UK
03:17AM 51.5176 -0.3616 22° Northeast 228 262 4,800 -1,680 Descending FlightAware UK
03:17AM 51.5348 -0.3589 North 226 260 4,300 -1,740 Descending FlightAware UK
03:17AM 51.5583 -0.3616 356° North 220 253 3,600 -1,740 Descending FlightAware UK
03:18AM 51.5762 -0.3646 354° North 220 253 3,100 -1,680 Descending FlightAware UK
03:18AM 51.5941 -0.3676 354° North 218 251 2,600 -1,860 Descending FlightAware UK
03:18AM 51.6130 -0.3486 32° Northeast 218 251 1,800 -1,680 Descending FlightAware UK
03:19AM 51.6301 -0.3129 52° Northeast 212 244 1,100 -1,140 Descending FlightAware UK
03:19AM 51.6381 -0.2920 58° Northeast 190 219 900 -360 Descending FlightAware UK
03:20AM 51.6386 -0.2702 88° East 166 191 900  Level FlightAware UK
03:20AM 51.6390 -0.2366 89° East 162 186 900  Level FlightAware UK
03:20AM 51.6396 -0.2167 87° East 162 186 900  Level FlightAware UK
03:21AM 51.6274 -0.1993 139° Southeast 162 186 900  Level FlightAware UK
03:21AM 51.6101 -0.2094 200° South 162 186 900 -180 Level FlightAware UK
03:22AM 51.5969 -0.2304 225° Southwest 160 184 800 -780 Descending FlightAware UK
03:22AM 51.5838 -0.2805 247° West 160 184 100 -1,020 Descending FlightAware UK
03:28AM 51.5500 -0.4167 90° East  Level FlightAware Approximate